createdAt,value
2022-10-02T00:02:21.945Z,101525.84
2022-10-02T00:04:57.785Z,101549.69
2022-10-02T00:07:35.507Z,101442.56
2022-10-02T00:10:15.488Z,101530.97
2022-10-02T00:12:48.501Z,101504.25
2022-10-02T00:15:23.451Z,101571.38
2022-10-02T00:17:56.116Z,101499.81
2022-10-02T00:20:31.220Z,101564.22
2022-10-02T00:23:07.240Z,101556.41
2022-10-02T00:25:43.283Z,101576.91
2022-10-02T00:28:26.357Z,101556.41
2022-10-02T00:31:19.830Z,101515.09
2022-10-02T00:34:05.439Z,101543.31
2022-10-02T00:36:48.478Z,101546.03
2022-10-02T00:39:29.845Z,101560.03
2022-10-02T00:42:52.024Z,101579.69
2022-10-02T00:46:00.987Z,101582.34
2022-10-02T00:49:09.481Z,101547.88
2022-10-02T00:51:53.486Z,101578.53
2022-10-02T00:54:49.090Z,101537.97
2022-10-02T00:57:34.091Z,101589.19
2022-10-02T01:00:09.822Z,101505.31
2022-10-02T01:03:11.792Z,101569.88
2022-10-02T01:05:40.257Z,101548.56
2022-10-02T01:08:09.624Z,101595.16
2022-10-02T01:10:39.256Z,101560.75
2022-10-02T01:13:07.906Z,101591.03
2022-10-02T01:15:39.242Z,101572.50
2022-10-02T01:18:12.229Z,101608.75
2022-10-02T01:20:44.802Z,101601.56
2022-10-02T01:23:25.751Z,101538.91
2022-10-02T01:25:55.760Z,101589.31
2022-10-02T01:28:24.589Z,101610.44
2022-10-02T01:30:58.390Z,101577.00
2022-10-02T01:33:26.714Z,101606.22
2022-10-02T01:35:55.094Z,101604.41
2022-10-02T01:38:25.874Z,101585.00
2022-10-02T01:40:55.591Z,101568.28
2022-10-02T01:43:28.464Z,101627.50
2022-10-02T01:46:13.602Z,101618.69
2022-10-02T01:48:48.410Z,101616.00
2022-10-02T01:51:48.922Z,101627.56
2022-10-02T01:54:30.598Z,101522.44
2022-10-02T01:57:16.434Z,101575.44
2022-10-02T01:59:58.997Z,101571.88
2022-10-02T02:02:38.902Z,101599.31
2022-10-02T02:05:14.186Z,101560.34
2022-10-02T02:07:51.131Z,101542.66
2022-10-02T02:10:26.506Z,101623.75
2022-10-02T02:13:02.129Z,101615.91
2022-10-02T02:15:38.020Z,101621.19
2022-10-02T02:18:14.559Z,101544.31
2022-10-02T02:20:52.069Z,101612.41
2022-10-02T02:23:26.850Z,101561.13
2022-10-02T02:26:03.490Z,101571.81
2022-10-02T02:28:34.824Z,101617.72
2022-10-02T02:31:06.760Z,101618.63
2022-10-02T02:33:42.079Z,101585.06
2022-10-02T02:36:16.824Z,101591.34
2022-10-02T02:38:51.901Z,101611.69
2022-10-02T02:41:26.838Z,101608.03
2022-10-02T02:44:02.937Z,101636.31
2022-10-02T02:46:59.068Z,101593.84
2022-10-02T02:49:31.049Z,101607.03
2022-10-02T02:52:03.864Z,101633.41
2022-10-02T02:54:38.406Z,101628.13
2022-10-02T02:57:09.279Z,101627.22
2022-10-02T02:59:42.121Z,101636.03
2022-10-02T03:02:10.452Z,101636.03
2022-10-02T03:04:38.900Z,101599.81
2022-10-02T03:07:12.357Z,101632.50
2022-10-02T03:09:41.002Z,101582.19
2022-10-02T03:12:21.997Z,101596.34
2022-10-02T03:15:15.088Z,101635.28
2022-10-02T03:18:00.676Z,101558.22
2022-10-02T03:20:41.698Z,101601.47
2022-10-02T03:23:23.408Z,101605.91
2022-10-02T03:25:59.310Z,101647.47
2022-10-02T03:28:54.287Z,101648.31
2022-10-02T03:31:26.594Z,101582.06
2022-10-02T03:33:56.643Z,101638.72
2022-10-02T03:36:25.519Z,101647.53
2022-10-02T03:39:19.761Z,101557.34
2022-10-02T03:41:43.801Z,101607.63
2022-10-02T03:44:12.023Z,101636.75
2022-10-02T03:46:41.711Z,101656.28
2022-10-02T03:49:10.113Z,101635.13
2022-10-02T03:51:38.434Z,101641.06
2022-10-02T03:54:14.654Z,101610.97
2022-10-02T03:56:53.535Z,101607.66
2022-10-02T03:59:38.238Z,101606.75
2022-10-02T04:02:20.658Z,101644.66
2022-10-02T04:04:56.407Z,101646.41
2022-10-02T04:07:34.159Z,101570.38
2022-10-02T04:10:30.893Z,101645.44
2022-10-02T04:13:09.051Z,101645.41
2022-10-02T04:15:52.689Z,101644.59
2022-10-02T04:18:28.073Z,101637.38
2022-10-02T04:21:01.267Z,101592.34
2022-10-02T04:23:34.871Z,101550.72
2022-10-02T04:26:08.779Z,101567.41
2022-10-02T04:28:42.971Z,101643.59
2022-10-02T04:31:14.225Z,101591.28
2022-10-02T04:33:43.949Z,101635.50
2022-10-02T04:36:33.163Z,101643.63
2022-10-02T04:39:46.602Z,101675.41
2022-10-02T04:42:36.603Z,101679.84
2022-10-02T04:45:34.026Z,101653.31
2022-10-02T04:48:38.155Z,101695.75
2022-10-02T04:51:26.664Z,101671.09
2022-10-02T04:54:30.653Z,101656.03
2022-10-02T04:57:33.597Z,101666.59
2022-10-02T05:00:10.099Z,101684.22
2022-10-02T05:02:58.023Z,101657.75
2022-10-02T05:05:42.041Z,101685.19
2022-10-02T05:08:42.298Z,101686.13
2022-10-02T05:11:31.950Z,101691.41
2022-10-02T05:14:31.024Z,101686.22
2022-10-02T05:17:18.033Z,101672.91
2022-10-02T05:20:12.828Z,101700.28
2022-10-02T05:23:03.262Z,101695.84
2022-10-02T05:25:59.347Z,101687.09
2022-10-02T05:29:04.701Z,101615.50
2022-10-02T05:31:52.555Z,101696.56
2022-10-02T05:34:46.758Z,101666.41
2022-10-02T05:37:30.850Z,101665.44
2022-10-02T05:40:11.723Z,101584.09
2022-10-02T05:42:52.433Z,101651.91
2022-10-02T05:45:28.371Z,101727.19
2022-10-02T05:48:08.922Z,101727.13
2022-10-02T05:50:39.014Z,101722.84
2022-10-02T05:53:19.125Z,101707.19
2022-10-02T05:55:54.118Z,101715.16
2022-10-02T05:58:31.685Z,101642.78
2022-10-02T06:01:06.435Z,101726.72
2022-10-02T06:03:43.603Z,101650.63
2022-10-02T06:06:17.982Z,101740.66
2022-10-02T06:08:51.976Z,101687.56
2022-10-02T06:11:29.385Z,101736.09
2022-10-02T06:14:10.464Z,101575.31
2022-10-02T06:16:45.881Z,101715.72
2022-10-02T06:19:24.486Z,101767.81
2022-10-02T06:21:58.697Z,101717.41
2022-10-02T06:24:34.885Z,101721.84
2022-10-02T06:27:11.849Z,101737.91
2022-10-02T06:29:49.545Z,101740.63
2022-10-02T06:32:27.719Z,101675.16
2022-10-02T06:34:56.875Z,101724.88
2022-10-02T06:37:51.015Z,101713.34
2022-10-02T06:40:47.903Z,101770.78
2022-10-02T06:43:48.851Z,101784.88
2022-10-02T06:46:35.304Z,101778.47
2022-10-02T06:49:13.617Z,101771.56
2022-10-02T06:51:57.126Z,101778.72
2022-10-02T06:54:45.264Z,101804.41
2022-10-02T06:57:34.929Z,101798.34
2022-10-02T07:00:13.655Z,101796.78
2022-10-02T07:03:41.935Z,101797.75
2022-10-02T07:06:24.583Z,101773.84
2022-10-02T07:09:24.558Z,101800.44
2022-10-02T07:12:04.663Z,101810.03
2022-10-02T07:14:56.051Z,101740.22
2022-10-02T07:17:42.433Z,101760.75
2022-10-02T07:20:41.536Z,101808.50
2022-10-02T07:23:45.845Z,101808.50
2022-10-02T07:26:36.909Z,101782.88
2022-10-02T07:29:27.421Z,101776.75
2022-10-02T07:32:19.050Z,101750.28
2022-10-02T07:34:59.061Z,101773.34
2022-10-02T07:37:42.395Z,101739.75
2022-10-02T07:40:36.130Z,101700.78
2022-10-02T07:43:22.125Z,101802.56
2022-10-02T07:46:02.480Z,101790.97
2022-10-02T07:48:47.171Z,101778.69
2022-10-02T07:51:50.862Z,101801.69
2022-10-02T07:54:41.849Z,101792.00
2022-10-02T07:57:28.571Z,101815.13
2022-10-02T08:00:03.941Z,101789.50
2022-10-02T08:02:48.832Z,101813.47
2022-10-02T08:05:25.734Z,101828.53
2022-10-02T08:08:00.302Z,101832.13
2022-10-02T08:10:38.179Z,101818.00
2022-10-02T08:13:16.226Z,101839.19
2022-10-02T08:15:47.582Z,101836.59
2022-10-02T08:18:34.256Z,101814.47
2022-10-02T08:21:06.319Z,101807.38
2022-10-02T08:23:40.648Z,101810.09
2022-10-02T08:26:19.157Z,101810.94
2022-10-02T08:28:57.234Z,101838.44
2022-10-02T08:31:27.104Z,101849.91
2022-10-02T08:33:56.193Z,101831.34
2022-10-02T08:36:59.517Z,101853.44
2022-10-02T08:40:04.816Z,101834.94
2022-10-02T08:43:22.874Z,101838.44
2022-10-02T08:46:58.556Z,101858.84
2022-10-02T08:50:20.012Z,101876.47
2022-10-02T08:53:54.771Z,101755.47
2022-10-02T08:56:40.159Z,101829.66
2022-10-02T08:59:50.684Z,101821.66
2022-10-02T09:03:21.235Z,101880.03
2022-10-02T09:06:52.214Z,101842.91
2022-10-02T09:10:19.905Z,101876.53
2022-10-02T09:13:48.063Z,101881.81
2022-10-02T09:16:30.590Z,101847.38
2022-10-02T09:19:03.831Z,101876.56
2022-10-02T09:21:51.803Z,101857.97
2022-10-02T09:25:14.839Z,101843.81
2022-10-02T09:28:35.879Z,101877.38
2022-10-02T09:31:41.115Z,101872.09
2022-10-02T09:35:08.979Z,101876.50
2022-10-02T09:38:38.322Z,101878.25
2022-10-02T09:42:01.250Z,101885.38
2022-10-02T09:45:32.465Z,101892.41
2022-10-02T09:49:00.353Z,101899.50
2022-10-02T09:52:14.344Z,101873.84
2022-10-02T09:55:19.261Z,101889.69
2022-10-02T09:58:31.440Z,101838.44
2022-10-02T10:01:34.014Z,101814.63
2022-10-02T10:05:13.099Z,101895.78
2022-10-02T10:08:40.091Z,101895.81
2022-10-02T10:11:32.236Z,101900.22
2022-10-02T10:14:45.951Z,101900.25
2022-10-02T10:17:56.734Z,101892.31
2022-10-02T10:20:55.557Z,101874.75
2022-10-02T10:23:55.623Z,101896.84
2022-10-02T10:27:07.999Z,101879.13
2022-10-02T10:30:36.327Z,101901.28
2022-10-02T10:33:51.862Z,101909.16
2022-10-02T10:37:12.913Z,101862.34
2022-10-02T10:40:15.761Z,101928.56
2022-10-02T10:43:41.964Z,101886.03
2022-10-02T10:46:59.042Z,101890.25
2022-10-02T10:50:04.095Z,101914.22
2022-10-02T10:53:04.321Z,101849.88
2022-10-02T10:56:07.333Z,101858.75
2022-10-02T10:59:05.095Z,101899.38
2022-10-02T11:01:44.988Z,101917.88
2022-10-02T11:04:52.257Z,101915.25
2022-10-02T11:07:52.518Z,101939.63
2022-10-02T11:10:34.510Z,101940.59
2022-10-02T11:13:35.515Z,101939.75
2022-10-02T11:16:40.178Z,101900.97
2022-10-02T11:19:34.383Z,101906.31
2022-10-02T11:22:29.398Z,101940.91
2022-10-02T11:25:23.452Z,101913.56
2022-10-02T11:28:28.592Z,101935.66
2022-10-02T11:31:20.115Z,101883.63
2022-10-02T11:34:08.999Z,101908.28
2022-10-02T11:37:00.895Z,101935.69
2022-10-02T11:40:14.127Z,101945.25
2022-10-02T11:43:02.970Z,101911.53
2022-10-02T11:46:14.575Z,101943.28
2022-10-02T11:49:26.379Z,101937.97
2022-10-02T11:52:26.019Z,101913.28
2022-10-02T11:55:24.303Z,101944.47
2022-10-02T11:58:09.028Z,101938.28
2022-10-02T12:01:07.294Z,101967.44
2022-10-02T12:03:59.001Z,101950.72
2022-10-02T12:07:09.071Z,101897.72
2022-10-02T12:09:54.842Z,101931.28
2022-10-02T12:12:51.083Z,101939.22
2022-10-02T12:15:33.310Z,101971.03
2022-10-02T12:18:26.562Z,101980.81
2022-10-02T12:21:45.556Z,101969.31
2022-10-02T12:24:55.587Z,101982.59
2022-10-02T12:27:42.765Z,101985.22
2022-10-02T12:30:15.762Z,101954.31
2022-10-02T12:33:22.657Z,101969.28
2022-10-02T12:36:16.595Z,101954.28
2022-10-02T12:39:05.313Z,101918.88
2022-10-02T12:41:54.737Z,101965.72
2022-10-02T12:44:53.550Z,101983.41
2022-10-02T12:47:51.924Z,101988.59
2022-10-02T12:50:36.713Z,101971.03
2022-10-02T12:53:52.164Z,101923.16
2022-10-02T12:57:39.114Z,101988.44
2022-10-02T13:00:15.643Z,101990.28
2022-10-02T13:03:20.542Z,101985.91
2022-10-02T13:06:22.595Z,101982.38
2022-10-02T13:09:17.556Z,101950.44
2022-10-02T13:12:06.588Z,101944.91
2022-10-02T13:15:07.952Z,101988.84
2022-10-02T13:17:48.002Z,101968.63
2022-10-02T13:20:28.128Z,101991.59
2022-10-02T13:23:07.586Z,101986.31
2022-10-02T13:25:54.540Z,101967.00
2022-10-02T13:29:02.119Z,101986.41
2022-10-02T13:31:50.985Z,101938.13
2022-10-02T13:34:40.605Z,101999.72
2022-10-02T13:37:26.512Z,101960.94
2022-10-02T13:40:22.688Z,101983.88
2022-10-02T13:43:34.524Z,102000.41
2022-10-02T13:46:23.394Z,101878.72
2022-10-02T13:49:06.296Z,102010.47
2022-10-02T13:51:46.890Z,102010.97
2022-10-02T13:54:38.359Z,102021.63
2022-10-02T13:57:28.292Z,101882.03
2022-10-02T14:00:15.553Z,101779.94
2022-10-02T14:02:57.619Z,101996.38
2022-10-02T14:05:42.666Z,101927.22
2022-10-02T14:08:49.610Z,101980.16
2022-10-02T14:11:34.313Z,102012.22
2022-10-02T14:14:22.930Z,102035.13
2022-10-02T14:17:03.171Z,101863.72
2022-10-02T14:20:23.649Z,101993.56
2022-10-02T14:23:13.861Z,102009.22
2022-10-02T14:25:59.424Z,102001.25
2022-10-02T14:29:15.862Z,102032.09
2022-10-02T14:32:08.692Z,102030.44
2022-10-02T14:35:18.044Z,102031.66
2022-10-02T14:38:31.365Z,102021.84
2022-10-02T14:41:26.379Z,102032.81
2022-10-02T14:44:18.008Z,102025.41
2022-10-02T14:47:19.225Z,102014.41
2022-10-02T14:50:10.182Z,102041.31
2022-10-02T14:52:57.389Z,102045.16
2022-10-02T14:55:41.069Z,102000.06
2022-10-02T14:58:29.135Z,102063.53
2022-10-02T15:01:19.555Z,102012.66
2022-10-02T15:04:15.336Z,102033.59
2022-10-02T15:07:00.102Z,102068.56
2022-10-02T15:09:39.278Z,102044.19
2022-10-02T15:12:18.574Z,102047.88
2022-10-02T15:15:08.167Z,102069.06
2022-10-02T15:17:56.374Z,102066.34
2022-10-02T15:20:41.317Z,102065.47
2022-10-02T15:23:25.735Z,102069.94
2022-10-02T15:26:41.627Z,102082.53
2022-10-02T15:29:36.615Z,102057.75
2022-10-02T15:32:31.428Z,102071.91
2022-10-02T15:35:16.385Z,102104.63
2022-10-02T15:38:01.702Z,102040.03
2022-10-02T15:40:42.807Z,102059.50
2022-10-02T15:43:39.248Z,102111.63
2022-10-02T15:46:18.482Z,102118.75
2022-10-02T15:49:01.736Z,102124.97
2022-10-02T15:51:50.611Z,102132.03
2022-10-02T15:54:38.993Z,102134.63
2022-10-02T15:57:28.246Z,102135.44
2022-10-02T16:00:12.470Z,102148.81
2022-10-02T16:03:06.319Z,102139.94
2022-10-02T16:05:58.099Z,102158.41
2022-10-02T16:08:54.821Z,102138.06
2022-10-02T16:12:17.593Z,102167.22
2022-10-02T16:15:08.019Z,102166.16
2022-10-02T16:18:13.865Z,102165.28
2022-10-02T16:21:23.551Z,102170.44
2022-10-02T16:24:33.589Z,102188.13
2022-10-02T16:27:26.317Z,102205.84
2022-10-02T16:30:13.155Z,102209.25
2022-10-02T16:33:16.340Z,102197.69
2022-10-02T16:36:02.198Z,102215.03
2022-10-02T16:38:48.645Z,102225.69
2022-10-02T16:41:36.933Z,102222.91
2022-10-02T16:44:28.496Z,102189.25
2022-10-02T16:47:08.007Z,102238.91
2022-10-02T16:49:51.068Z,102220.06
2022-10-02T16:52:27.579Z,102237.91
2022-10-02T16:55:15.637Z,102231.63
2022-10-02T16:58:19.154Z,102209.19
2022-10-02T17:00:56.935Z,102215.06
2022-10-02T17:03:33.595Z,102231.13
2022-10-02T17:06:08.454Z,102206.94
2022-10-02T17:08:45.267Z,102264.25
2022-10-02T17:11:22.673Z,102288.22
2022-10-02T17:14:11.093Z,102290.13
2022-10-02T17:16:48.794Z,102226.13
2022-10-02T17:19:29.061Z,102299.63
2022-10-02T17:22:04.774Z,102245.22
2022-10-02T17:24:48.411Z,102270.84
2022-10-02T17:27:36.731Z,102298.44
2022-10-02T17:30:16.362Z,102311.41
2022-10-02T17:33:07.875Z,102288.13
2022-10-02T17:35:56.166Z,102321.41
2022-10-02T17:38:55.191Z,102329.09
2022-10-02T17:41:47.132Z,102349.69
2022-10-02T17:44:33.381Z,102330.03
2022-10-02T17:47:39.000Z,102217.84
2022-10-02T17:50:31.914Z,102369.13
2022-10-02T17:53:35.878Z,102356.38
2022-10-02T17:56:32.308Z,102376.25
2022-10-02T17:59:20.113Z,102310.88
2022-10-02T18:02:04.682Z,102386.19
2022-10-02T18:04:49.496Z,102388.16
2022-10-02T18:07:37.559Z,102337.28
2022-10-02T18:10:23.206Z,102402.28
2022-10-02T18:13:27.422Z,102386.28
2022-10-02T18:16:22.705Z,102389.41
2022-10-02T18:19:29.158Z,102388.56
2022-10-02T18:22:16.039Z,102391.09
2022-10-02T18:25:14.260Z,102350.81
2022-10-02T18:28:34.855Z,102415.50
2022-10-02T18:31:53.980Z,102420.47
2022-10-02T18:34:41.408Z,102404.03
2022-10-02T18:37:34.699Z,102388.97
2022-10-02T18:40:22.218Z,102438.63
2022-10-02T18:43:22.890Z,102436.63
2022-10-02T18:46:04.458Z,102427.25
2022-10-02T18:48:57.556Z,102452.97
2022-10-02T18:52:09.277Z,102403.88
2022-10-02T18:54:54.726Z,102424.03
2022-10-02T18:57:41.500Z,102457.75
2022-10-02T19:00:21.471Z,102459.97
2022-10-02T19:03:20.502Z,102418.47
2022-10-02T19:05:54.900Z,102423.50
2022-10-02T19:08:32.287Z,102329.78
2022-10-02T19:11:00.679Z,102472.09
2022-10-02T19:13:31.269Z,102474.75
2022-10-02T19:16:17.275Z,102482.56
2022-10-02T19:18:46.199Z,102458.66
2022-10-02T19:21:19.368Z,102415.63
2022-10-02T19:24:15.417Z,102490.22
2022-10-02T19:26:50.834Z,102472.81
2022-10-02T19:29:31.751Z,102476.94
2022-10-02T19:32:09.129Z,102445.72
2022-10-02T19:34:37.549Z,102514.03
2022-10-02T19:37:07.938Z,102484.41
2022-10-02T19:39:42.997Z,102476.59
2022-10-02T19:42:19.335Z,102525.56
2022-10-02T19:44:50.550Z,102522.38
2022-10-02T19:47:28.146Z,102501.50
2022-10-02T19:49:59.715Z,102542.03
2022-10-02T19:52:43.587Z,102538.47
2022-10-02T19:55:27.217Z,102522.22
2022-10-02T19:58:04.498Z,102505.03
2022-10-02T20:00:38.563Z,102548.94
2022-10-02T20:03:15.791Z,102555.75
2022-10-02T20:05:45.907Z,102510.44
2022-10-02T20:08:20.938Z,102519.31
2022-10-02T20:11:00.450Z,102514.59
2022-10-02T20:13:37.486Z,102553.94
2022-10-02T20:16:31.969Z,102508.38
2022-10-02T20:19:00.787Z,102549.63
2022-10-02T20:21:39.415Z,102560.88
2022-10-02T20:24:17.272Z,102565.00
2022-10-02T20:26:50.139Z,102540.69
2022-10-02T20:29:23.276Z,102576.22
2022-10-02T20:31:59.566Z,102552.91
2022-10-02T20:34:35.117Z,102487.50
2022-10-02T20:37:09.455Z,102583.09
2022-10-02T20:39:42.834Z,102582.94
2022-10-02T20:42:17.547Z,102576.31
2022-10-02T20:44:45.934Z,102595.63
2022-10-02T20:47:46.931Z,102572.31
2022-10-02T20:50:49.734Z,102573.88
2022-10-02T20:54:12.461Z,102611.03
2022-10-02T20:58:05.986Z,102615.50
2022-10-02T21:00:53.194Z,102551.63
2022-10-02T21:03:43.045Z,102624.50
2022-10-02T21:07:06.732Z,102642.22
2022-10-02T21:10:07.920Z,102646.59
2022-10-02T21:13:51.728Z,102645.78
2022-10-02T21:17:02.295Z,102619.81
2022-10-02T21:20:33.289Z,102656.28
2022-10-02T21:24:10.467Z,102641.09
2022-10-02T21:27:31.495Z,102633.94
2022-10-02T21:30:15.107Z,102645.34
2022-10-02T21:33:06.396Z,102661.81
2022-10-02T21:35:53.566Z,102598.28
2022-10-02T21:39:22.442Z,102670.28
2022-10-02T21:42:51.882Z,102670.31
2022-10-02T21:46:04.981Z,102657.13
2022-10-02T21:49:26.210Z,102678.88
2022-10-02T21:52:45.055Z,102684.06
2022-10-02T21:55:54.510Z,102655.03
2022-10-02T21:59:07.158Z,102671.16
2022-10-02T22:02:34.866Z,102685.50
2022-10-02T22:05:54.212Z,102683.66
2022-10-02T22:08:32.760Z,102662.91
2022-10-02T22:11:12.727Z,102686.94
2022-10-02T22:13:43.380Z,102690.91
2022-10-02T22:16:29.472Z,102636.63
2022-10-02T22:19:05.800Z,102657.56
2022-10-02T22:21:53.182Z,102707.47
2022-10-02T22:24:40.295Z,102645.47
2022-10-02T22:27:32.785Z,102620.31
2022-10-02T22:30:01.439Z,102705.41
2022-10-02T22:33:06.555Z,102711.41
2022-10-02T22:36:14.361Z,102633.66
2022-10-02T22:38:49.558Z,102709.66
2022-10-02T22:41:29.952Z,102709.75
2022-10-02T22:44:04.806Z,102669.97
2022-10-02T22:46:46.945Z,102677.13
2022-10-02T22:49:25.375Z,102636.53
2022-10-02T22:52:01.877Z,102712.47
2022-10-02T22:54:43.410Z,102712.13
2022-10-02T22:57:22.811Z,102709.56
2022-10-02T22:59:56.648Z,102706.69
2022-10-02T23:02:33.194Z,102712.06
2022-10-02T23:05:12.048Z,102714.50
2022-10-02T23:07:48.144Z,102700.97
2022-10-02T23:10:29.532Z,102662.19
2022-10-02T23:13:06.341Z,102713.84
2022-10-02T23:15:47.911Z,102710.13
2022-10-02T23:18:28.671Z,102719.91
2022-10-02T23:21:04.641Z,102722.59
2022-10-02T23:23:50.969Z,102719.78
2022-10-02T23:26:31.566Z,102729.22
2022-10-02T23:29:19.527Z,102720.31
2022-10-02T23:31:58.152Z,102666.34
2022-10-02T23:34:41.503Z,102732.41
2022-10-02T23:37:20.430Z,102740.16
2022-10-02T23:39:57.818Z,102598.75
2022-10-02T23:42:34.617Z,102742.84
2022-10-02T23:45:10.225Z,102751.47
2022-10-02T23:47:55.808Z,102721.22
2022-10-02T23:50:31.657Z,102674.06
2022-10-02T23:53:14.833Z,102733.91
2022-10-02T23:56:12.300Z,102736.31
2022-10-02T23:59:07.158Z,102721.53
